Terminal Aerodrome Forecast
Issued by NWS

Home | Current Version | Previous Version | Text Only | Print | Product List | Glossary On
Versions: 1 2 3 4 5 6 7 8 9 10 11 12 13 14 15 16
167
FTUS46 KSEW 201120
TAFBLI
TAF
KBLI 201120Z 2012/2112 16004KT P6SM SCT012 OVC050
      TEMPO 2012/2016 BKN012 OVC060
     FM202000 19012G18KT P6SM -SHRA SCT030 BKN050 OVC100
     FM210100 17008KT P6SM SCT035 BKN080 OVC120
     FM211100 10008KT P6SM FEW040 OVC080=

USA.gov is the U.S. government's official web portal to all federal, state and local government web resources and services.